createdAt,value
2023-04-29T00:01:12.352Z,43.06
2023-04-29T00:03:40.814Z,43.05
2023-04-29T00:06:11.705Z,43.15
2023-04-29T00:08:40.929Z,43.17
2023-04-29T00:11:11.479Z,43.16
2023-04-29T00:13:41.245Z,43.14
2023-04-29T00:16:10.554Z,43.39
2023-04-29T00:18:39.075Z,43.40
2023-04-29T00:21:08.172Z,43.33
2023-04-29T00:23:36.668Z,43.26
2023-04-29T00:26:05.668Z,43.01
2023-04-29T00:28:34.179Z,43.00
2023-04-29T00:31:03.096Z,43.25
2023-04-29T00:33:31.822Z,42.91
2023-04-29T00:36:00.688Z,43.23
2023-04-29T00:38:29.356Z,43.20
2023-04-29T00:40:58.170Z,43.28
2023-04-29T00:43:26.617Z,43.35
2023-04-29T00:45:55.632Z,43.57
2023-04-29T00:48:24.141Z,43.45
2023-04-29T00:50:53.383Z,43.29
2023-04-29T00:53:23.489Z,43.54
2023-04-29T00:55:52.598Z,43.38
2023-04-29T00:58:22.401Z,43.61
2023-04-29T01:00:51.192Z,43.52
2023-04-29T01:03:19.702Z,43.46
2023-04-29T01:05:48.592Z,43.58
2023-04-29T01:08:48.386Z,43.70
2023-04-29T01:11:17.199Z,43.56
2023-04-29T01:13:55.640Z,43.42
2023-04-29T01:16:30.062Z,43.58
2023-04-29T01:19:07.659Z,43.57
2023-04-29T01:21:49.171Z,43.53
2023-04-29T01:24:17.697Z,43.71
2023-04-29T01:26:59.696Z,43.89
2023-04-29T01:30:13.579Z,43.93
2023-04-29T01:33:30.928Z,43.94
2023-04-29T01:36:02.859Z,43.86
2023-04-29T01:38:42.265Z,44.00
2023-04-29T01:41:43.809Z,43.96
2023-04-29T01:44:22.560Z,44.06
2023-04-29T01:46:54.676Z,44.14
2023-04-29T01:49:30.061Z,44.16
2023-04-29T01:51:58.629Z,44.21
2023-04-29T01:54:27.881Z,43.92
2023-04-29T01:56:59.169Z,43.96
2023-04-29T01:59:32.551Z,44.18
2023-04-29T02:02:15.673Z,44.23
2023-04-29T02:04:54.355Z,44.29
2023-04-29T02:07:23.000Z,44.41
2023-04-29T02:09:52.138Z,44.22
2023-04-29T02:12:21.365Z,44.19
2023-04-29T02:14:53.995Z,44.28
2023-04-29T02:17:22.629Z,44.24
2023-04-29T02:19:51.675Z,44.32
2023-04-29T02:22:20.635Z,44.17
2023-04-29T02:24:49.473Z,44.50
2023-04-29T02:27:18.333Z,44.39
2023-04-29T02:29:47.433Z,44.37
2023-04-29T02:32:16.136Z,44.26
2023-04-29T02:34:45.661Z,44.33
2023-04-29T02:37:14.387Z,44.41
2023-04-29T02:39:43.403Z,44.41
2023-04-29T02:42:14.096Z,44.31
2023-04-29T02:44:42.875Z,44.46
2023-04-29T02:47:11.455Z,44.41
2023-04-29T02:49:40.637Z,44.51
2023-04-29T02:52:09.297Z,44.35
2023-04-29T02:54:38.547Z,44.16
2023-04-29T02:57:08.141Z,44.46
2023-04-29T02:59:37.197Z,44.40
2023-04-29T03:02:05.724Z,44.71
2023-04-29T03:04:34.633Z,44.51
2023-04-29T03:07:03.155Z,44.63
2023-04-29T03:09:32.176Z,44.54
2023-04-29T03:12:01.617Z,44.65
2023-04-29T03:14:30.472Z,44.51
2023-04-29T03:17:00.386Z,44.64
2023-04-29T03:19:29.635Z,44.77
2023-04-29T03:21:58.167Z,44.68
2023-04-29T03:24:27.481Z,44.71
2023-04-29T03:26:56.227Z,44.78
2023-04-29T03:29:25.218Z,44.84
2023-04-29T03:31:54.690Z,44.89
2023-04-29T03:34:23.783Z,44.91
2023-04-29T03:37:06.320Z,44.88
2023-04-29T03:39:35.196Z,44.95
2023-04-29T03:42:04.800Z,44.98
2023-04-29T03:44:33.660Z,45.26
2023-04-29T03:47:02.172Z,45.53
2023-04-29T03:49:31.135Z,45.59
2023-04-29T03:51:59.633Z,45.49
2023-04-29T03:54:28.412Z,45.40
2023-04-29T03:56:56.932Z,45.82
2023-04-29T03:59:26.447Z,45.53
2023-04-29T04:01:55.054Z,45.90
2023-04-29T04:04:24.340Z,45.82
2023-04-29T04:06:53.061Z,45.84
2023-04-29T04:09:26.414Z,45.76
2023-04-29T04:11:54.875Z,46.06
2023-04-29T04:14:23.726Z,45.91
2023-04-29T04:16:52.441Z,45.92
2023-04-29T04:19:21.374Z,46.10
2023-04-29T04:21:49.801Z,45.83
2023-04-29T04:24:20.103Z,46.24
2023-04-29T04:26:49.534Z,46.03
2023-04-29T04:29:29.477Z,46.87
2023-04-29T04:32:01.341Z,47.01
2023-04-29T04:34:31.752Z,47.35
2023-04-29T04:37:02.305Z,47.43
2023-04-29T04:39:34.353Z,47.79
2023-04-29T04:42:03.986Z,47.89
2023-04-29T04:44:34.883Z,48.03
2023-04-29T04:47:08.521Z,48.25
2023-04-29T04:49:53.355Z,48.53
2023-04-29T04:52:23.941Z,48.58
2023-04-29T04:55:04.512Z,48.58
2023-04-29T04:57:36.880Z,48.87
2023-04-29T05:00:07.131Z,49.31
2023-04-29T05:02:36.216Z,49.18
2023-04-29T05:05:05.952Z,49.17
2023-04-29T05:07:37.566Z,49.20
2023-04-29T05:10:08.796Z,49.28
2023-04-29T05:12:45.060Z,49.02
2023-04-29T05:15:15.209Z,49.18
2023-04-29T05:17:45.633Z,48.95
2023-04-29T05:20:14.694Z,48.83
2023-04-29T05:22:43.171Z,48.96
2023-04-29T05:25:11.932Z,48.93
2023-04-29T05:27:40.669Z,49.03
2023-04-29T05:30:13.753Z,49.02
2023-04-29T05:32:42.253Z,48.79
2023-04-29T05:35:15.860Z,48.57
2023-04-29T05:37:45.478Z,48.71
2023-04-29T05:40:26.133Z,48.44
2023-04-29T05:43:02.117Z,48.20
2023-04-29T05:45:30.960Z,48.25
2023-04-29T05:47:59.444Z,48.67
2023-04-29T05:50:28.201Z,48.61
2023-04-29T05:52:57.052Z,48.30
2023-04-29T05:55:27.598Z,48.50
2023-04-29T05:57:57.082Z,48.55
2023-04-29T06:00:26.000Z,48.66
2023-04-29T06:03:00.481Z,48.47
2023-04-29T06:05:30.340Z,48.88
2023-04-29T06:08:19.862Z,48.64
2023-04-29T06:10:52.711Z,48.98
2023-04-29T06:13:21.674Z,48.72
2023-04-29T06:15:51.045Z,48.70
2023-04-29T06:18:21.286Z,48.57
2023-04-29T06:20:49.989Z,48.81
2023-04-29T06:23:18.619Z,48.57
2023-04-29T06:25:47.485Z,48.26
2023-04-29T06:28:16.700Z,47.91
2023-04-29T06:30:46.947Z,47.78
2023-04-29T06:33:16.065Z,47.75
2023-04-29T06:35:45.037Z,47.72
2023-04-29T06:38:24.217Z,47.89
2023-04-29T06:41:11.382Z,48.12
2023-04-29T06:44:05.924Z,48.31
2023-04-29T06:46:50.207Z,47.77
2023-04-29T06:49:29.353Z,47.56
2023-04-29T06:51:59.894Z,47.34
2023-04-29T06:54:28.910Z,47.23
2023-04-29T06:56:58.532Z,47.23
2023-04-29T06:59:27.055Z,46.98
2023-04-29T07:01:56.185Z,46.69
2023-04-29T07:04:24.951Z,46.52
2023-04-29T07:06:54.702Z,46.79
2023-04-29T07:09:23.982Z,46.58
2023-04-29T07:11:52.707Z,46.87
2023-04-29T07:14:23.176Z,46.94
2023-04-29T07:16:55.587Z,46.76
2023-04-29T07:19:24.043Z,46.83
2023-04-29T07:21:52.785Z,46.65
2023-04-29T07:24:21.251Z,46.54
2023-04-29T07:26:50.744Z,46.17
2023-04-29T07:29:19.477Z,46.28
2023-04-29T07:31:48.387Z,46.04
2023-04-29T07:34:17.045Z,46.28
2023-04-29T07:36:46.154Z,46.04
2023-04-29T07:39:15.753Z,46.04
2023-04-29T07:41:49.462Z,46.11
2023-04-29T07:44:17.861Z,45.91
2023-04-29T07:46:47.037Z,46.03
2023-04-29T07:49:15.687Z,45.76
2023-04-29T07:51:44.546Z,45.75
2023-04-29T07:54:13.078Z,46.11
2023-04-29T07:56:42.266Z,45.97
2023-04-29T07:59:10.843Z,45.95
2023-04-29T08:01:42.408Z,46.13
2023-04-29T08:04:11.036Z,45.88
2023-04-29T08:06:50.576Z,45.80
2023-04-29T08:09:18.974Z,46.23
2023-04-29T08:11:47.828Z,46.41
2023-04-29T08:14:16.419Z,46.78
2023-04-29T08:16:45.218Z,46.65
2023-04-29T08:19:13.751Z,46.24
2023-04-29T08:21:42.939Z,46.33
2023-04-29T08:24:11.492Z,46.29
2023-04-29T08:26:43.120Z,46.21
2023-04-29T08:29:11.549Z,46.05
2023-04-29T08:31:41.435Z,46.22
2023-04-29T08:34:09.907Z,46.41
2023-04-29T08:36:38.932Z,46.25
2023-04-29T08:39:07.282Z,46.38
2023-04-29T08:41:37.858Z,45.62
2023-04-29T08:44:06.380Z,45.48
2023-04-29T08:46:35.371Z,45.57
2023-04-29T08:49:04.538Z,45.40
2023-04-29T08:51:35.018Z,45.00
2023-04-29T08:54:03.500Z,44.58
2023-04-29T08:56:32.252Z,44.50
2023-04-29T08:59:02.103Z,44.30
2023-04-29T09:01:31.315Z,44.53
2023-04-29T09:04:10.664Z,43.97
2023-04-29T09:06:39.468Z,43.79
2023-04-29T09:09:08.000Z,43.36
2023-04-29T09:11:37.229Z,42.72
2023-04-29T09:14:05.812Z,42.46
2023-04-29T09:16:37.731Z,42.23
2023-04-29T09:19:06.369Z,42.40
2023-04-29T09:21:35.686Z,42.12
2023-04-29T09:24:04.436Z,42.12
2023-04-29T09:26:43.622Z,41.91
2023-04-29T09:29:16.329Z,41.17
2023-04-29T09:31:45.709Z,41.34
2023-04-29T09:34:14.768Z,41.20
2023-04-29T09:36:59.204Z,41.22
2023-04-29T09:39:27.695Z,41.05
2023-04-29T09:41:56.282Z,41.17
2023-04-29T09:44:36.127Z,41.51
2023-04-29T09:47:07.062Z,41.72
2023-04-29T09:49:41.440Z,42.00
2023-04-29T09:52:14.146Z,42.01
2023-04-29T09:54:43.651Z,42.04
2023-04-29T09:57:13.191Z,41.90
2023-04-29T09:59:42.222Z,41.84
2023-04-29T10:02:18.419Z,41.55
2023-04-29T10:04:57.957Z,41.35
2023-04-29T10:07:27.191Z,41.47
2023-04-29T10:09:55.626Z,41.58
2023-04-29T10:12:24.508Z,41.45
2023-04-29T10:15:04.302Z,41.30
2023-04-29T10:17:47.508Z,41.29
2023-04-29T10:20:22.898Z,41.25
2023-04-29T10:22:56.957Z,41.48
2023-04-29T10:25:28.473Z,41.82
2023-04-29T10:27:57.302Z,42.45
2023-04-29T10:30:25.810Z,42.40
2023-04-29T10:32:55.383Z,42.64
2023-04-29T10:35:25.921Z,42.30
2023-04-29T10:37:54.888Z,42.24
2023-04-29T10:40:43.060Z,42.14
2023-04-29T10:43:11.880Z,41.89
2023-04-29T10:45:41.004Z,41.79
2023-04-29T10:48:13.886Z,42.27
2023-04-29T10:51:01.666Z,42.72
2023-04-29T10:53:30.733Z,42.82
2023-04-29T10:56:05.578Z,42.51
2023-04-29T10:58:39.838Z,42.28
2023-04-29T11:01:08.688Z,42.29
2023-04-29T11:04:01.202Z,42.24
2023-04-29T11:06:54.488Z,43.01
2023-04-29T11:09:26.813Z,42.59
2023-04-29T11:12:04.010Z,42.92
2023-04-29T11:14:44.103Z,42.85
2023-04-29T11:17:17.711Z,42.68
2023-04-29T11:19:52.080Z,43.01
2023-04-29T11:22:24.366Z,43.04
2023-04-29T11:24:57.741Z,42.87
2023-04-29T11:27:37.553Z,43.48
2023-04-29T11:30:07.785Z,43.31
2023-04-29T11:32:40.652Z,43.91
2023-04-29T11:35:17.625Z,43.48
2023-04-29T11:37:47.195Z,43.89
2023-04-29T11:40:17.205Z,44.32
2023-04-29T11:42:49.700Z,44.74
2023-04-29T11:45:19.261Z,44.72
2023-04-29T11:47:48.610Z,44.63
2023-04-29T11:50:20.141Z,45.06
2023-04-29T11:52:49.623Z,44.60
2023-04-29T11:55:19.270Z,44.56
2023-04-29T11:57:50.732Z,44.52
2023-04-29T12:00:19.611Z,44.54
2023-04-29T12:02:48.520Z,44.32
2023-04-29T12:05:19.508Z,44.58
2023-04-29T12:07:51.254Z,44.60
2023-04-29T12:10:21.492Z,44.56
2023-04-29T12:12:49.937Z,44.34
2023-04-29T12:15:18.534Z,44.14
2023-04-29T12:17:47.464Z,44.56
2023-04-29T12:20:16.135Z,44.84
2023-04-29T12:22:44.474Z,45.24
2023-04-29T12:25:13.149Z,44.88
2023-04-29T12:27:44.530Z,45.06
2023-04-29T12:30:13.591Z,45.90
2023-04-29T12:32:42.228Z,46.14
2023-04-29T12:35:18.135Z,46.01
2023-04-29T12:37:51.069Z,45.52
2023-04-29T12:40:20.974Z,46.04
2023-04-29T12:42:49.497Z,45.70
2023-04-29T12:45:32.264Z,45.75
2023-04-29T12:48:01.548Z,45.54
2023-04-29T12:50:34.693Z,45.45
2023-04-29T12:53:07.661Z,45.83
2023-04-29T12:55:37.536Z,46.11
2023-04-29T12:58:06.176Z,45.98
2023-04-29T13:00:35.489Z,45.74
2023-04-29T13:03:04.679Z,45.72
2023-04-29T13:05:33.691Z,46.17
2023-04-29T13:08:02.291Z,46.58
2023-04-29T13:10:31.341Z,46.45
2023-04-29T13:13:00.099Z,46.96
2023-04-29T13:15:28.826Z,46.69
2023-04-29T13:17:59.060Z,47.23
2023-04-29T13:20:28.244Z,47.09
2023-04-29T13:22:56.720Z,46.85
2023-04-29T13:25:25.421Z,46.84
2023-04-29T13:27:53.765Z,46.52
2023-04-29T13:30:22.454Z,46.87
2023-04-29T13:32:55.935Z,46.09
2023-04-29T13:35:27.617Z,45.83
2023-04-29T13:37:56.139Z,46.08
2023-04-29T13:40:27.856Z,46.72
2023-04-29T13:43:04.896Z,46.99
2023-04-29T13:45:41.189Z,47.17
2023-04-29T13:48:32.436Z,47.10
2023-04-29T13:54:10.632Z,46.89
2023-04-29T13:59:37.259Z,46.82
2023-04-29T14:04:13.281Z,47.10
2023-04-29T14:06:44.366Z,47.64
2023-04-29T14:09:12.885Z,47.78
2023-04-29T14:11:41.900Z,47.71
2023-04-29T14:14:10.267Z,47.35
2023-04-29T14:16:39.118Z,47.28
2023-04-29T14:19:07.980Z,47.13
2023-04-29T14:21:36.769Z,47.39
2023-04-29T14:24:05.267Z,47.40
2023-04-29T14:26:34.140Z,47.31
2023-04-29T14:29:02.522Z,47.35
2023-04-29T14:31:35.663Z,47.33
2023-04-29T14:34:04.268Z,47.84
2023-04-29T14:36:33.000Z,47.79
2023-04-29T14:39:01.334Z,47.85
2023-04-29T14:41:29.932Z,48.20
2023-04-29T14:43:58.338Z,48.09
2023-04-29T14:46:29.228Z,48.29
2023-04-29T14:48:57.593Z,48.29
2023-04-29T14:51:27.498Z,48.53
2023-04-29T14:53:55.956Z,48.37
2023-04-29T14:56:24.707Z,48.41
2023-04-29T14:58:53.075Z,48.21
2023-04-29T15:01:21.841Z,48.61
2023-04-29T15:03:50.229Z,49.21
2023-04-29T15:06:18.962Z,49.09
2023-04-29T15:08:47.303Z,49.34
2023-04-29T15:11:16.041Z,49.60
2023-04-29T15:13:44.425Z,49.27
2023-04-29T15:16:13.102Z,49.13
2023-04-29T15:18:44.921Z,49.20
2023-04-29T15:21:14.406Z,49.05
2023-04-29T15:23:42.724Z,49.69
2023-04-29T15:26:11.370Z,49.38
2023-04-29T15:28:39.818Z,49.12
2023-04-29T15:31:08.466Z,48.92
2023-04-29T15:33:36.937Z,49.10
2023-04-29T15:36:07.136Z,48.87
2023-04-29T15:38:35.458Z,48.81
2023-04-29T15:41:04.186Z,48.81
2023-04-29T15:43:33.413Z,48.53
2023-04-29T15:46:02.051Z,48.70
2023-04-29T15:48:30.381Z,48.76
2023-04-29T15:50:59.034Z,48.85
2023-04-29T15:53:27.373Z,48.64
2023-04-29T15:55:56.225Z,48.63
2023-04-29T15:58:24.616Z,48.59
2023-04-29T16:00:53.343Z,48.48
2023-04-29T16:03:21.742Z,48.21
2023-04-29T16:05:51.137Z,48.32
2023-04-29T16:08:19.529Z,48.32
2023-04-29T16:10:49.872Z,48.39
2023-04-29T16:13:18.612Z,48.20
2023-04-29T16:15:47.348Z,48.40
2023-04-29T16:18:17.924Z,48.05
2023-04-29T16:20:46.784Z,48.20
2023-04-29T16:23:15.206Z,48.21
2023-04-29T16:25:43.995Z,48.30
2023-04-29T16:28:12.500Z,48.19
2023-04-29T16:30:41.384Z,48.11
2023-04-29T16:33:09.960Z,48.51
2023-04-29T16:35:39.035Z,48.19
2023-04-29T16:38:07.495Z,48.40
2023-04-29T16:40:36.865Z,48.31
2023-04-29T16:43:05.338Z,48.27
2023-04-29T16:45:34.185Z,48.50
2023-04-29T16:48:03.314Z,48.44
2023-04-29T16:50:32.247Z,48.27
2023-04-29T16:53:01.301Z,48.26
2023-04-29T16:55:33.097Z,48.29
2023-04-29T16:58:01.597Z,48.39
2023-04-29T17:00:30.511Z,48.10
2023-04-29T17:02:59.031Z,48.31
2023-04-29T17:05:28.058Z,48.23
2023-04-29T17:07:56.652Z,48.55
2023-04-29T17:10:25.462Z,48.53
2023-04-29T17:12:54.015Z,48.68
2023-04-29T17:15:22.925Z,48.64
2023-04-29T17:17:51.574Z,48.53
2023-04-29T17:20:20.726Z,48.79
2023-04-29T17:22:49.105Z,48.96
2023-04-29T17:25:18.282Z,49.00
2023-04-29T17:27:46.809Z,49.02
2023-04-29T17:30:15.689Z,49.02
2023-04-29T17:32:44.673Z,49.08
2023-04-29T17:35:13.467Z,49.05
2023-04-29T17:37:41.930Z,49.23
2023-04-29T17:40:11.636Z,49.86
2023-04-29T17:42:40.540Z,49.19
2023-04-29T17:45:10.504Z,49.65
2023-04-29T17:47:38.905Z,49.87
2023-04-29T17:50:08.492Z,49.02
2023-04-29T17:52:37.000Z,49.22
2023-04-29T17:55:06.518Z,49.32
2023-04-29T17:57:35.006Z,50.33
2023-04-29T18:00:05.706Z,49.49
2023-04-29T18:02:34.956Z,49.31
2023-04-29T18:05:04.317Z,49.21
2023-04-29T18:07:32.883Z,49.15
2023-04-29T18:10:01.681Z,49.22
2023-04-29T18:12:30.182Z,49.66
2023-04-29T18:14:58.961Z,49.53
2023-04-29T18:17:27.615Z,49.97
2023-04-29T18:19:56.709Z,50.51
2023-04-29T18:22:25.401Z,50.62
2023-04-29T18:24:54.231Z,50.67
2023-04-29T18:27:22.602Z,50.94
2023-04-29T18:29:51.635Z,50.82
2023-04-29T18:32:20.329Z,51.14
2023-04-29T18:34:49.212Z,51.00
2023-04-29T18:37:17.677Z,51.59
2023-04-29T18:39:46.413Z,51.77
2023-04-29T18:42:14.840Z,52.06
2023-04-29T18:44:43.874Z,52.09
2023-04-29T18:47:12.292Z,52.16
2023-04-29T18:49:41.304Z,52.39
2023-04-29T18:52:09.712Z,52.24
2023-04-29T18:54:38.496Z,52.40
2023-04-29T18:57:07.125Z,52.18
2023-04-29T18:59:37.905Z,52.16
2023-04-29T19:02:06.764Z,52.65
2023-04-29T19:04:36.004Z,52.44
2023-04-29T19:07:06.430Z,52.50
2023-04-29T19:09:35.182Z,53.00
2023-04-29T19:12:05.465Z,52.84
2023-04-29T19:14:34.439Z,52.71
2023-04-29T19:17:02.873Z,53.29
2023-04-29T19:19:31.688Z,53.23
2023-04-29T19:22:01.351Z,53.52
2023-04-29T19:24:29.998Z,53.52
2023-04-29T19:26:58.383Z,53.15
2023-04-29T19:29:27.173Z,53.21
2023-04-29T19:31:55.701Z,53.43
2023-04-29T19:34:24.649Z,53.80
2023-04-29T19:36:53.254Z,54.15
2023-04-29T19:39:21.970Z,53.90
2023-04-29T19:41:50.359Z,53.92
2023-04-29T19:44:19.184Z,54.03
2023-04-29T19:46:51.764Z,53.97
2023-04-29T19:49:20.812Z,53.65
2023-04-29T19:51:50.644Z,53.46
2023-04-29T19:54:19.435Z,53.44
2023-04-29T19:56:47.900Z,53.43
2023-04-29T19:59:17.073Z,53.18
2023-04-29T20:01:45.605Z,53.20
2023-04-29T20:04:14.500Z,52.93
2023-04-29T20:06:43.065Z,52.56
2023-04-29T20:09:11.996Z,52.72
2023-04-29T20:11:40.468Z,52.58
2023-04-29T20:14:09.170Z,52.49
2023-04-29T20:16:37.523Z,52.29
2023-04-29T20:19:06.885Z,52.30
2023-04-29T20:21:35.523Z,52.22
2023-04-29T20:24:04.894Z,52.37
2023-04-29T20:26:33.518Z,52.46
2023-04-29T20:29:02.217Z,52.53
2023-04-29T20:31:30.664Z,52.67
2023-04-29T20:34:00.526Z,52.36
2023-04-29T20:36:28.891Z,52.40
2023-04-29T20:38:57.674Z,52.38
2023-04-29T20:41:29.369Z,52.57
2023-04-29T20:43:59.122Z,52.95
2023-04-29T20:46:29.305Z,52.71
2023-04-29T20:48:58.033Z,52.86
2023-04-29T20:51:27.040Z,52.65
2023-04-29T20:53:55.798Z,52.44
2023-04-29T20:56:24.741Z,52.56
2023-04-29T20:58:53.404Z,53.01
2023-04-29T21:01:21.864Z,53.68
2023-04-29T21:03:50.966Z,53.20
2023-04-29T21:06:19.672Z,52.56
2023-04-29T21:08:48.474Z,52.24
2023-04-29T21:11:16.798Z,52.39
2023-04-29T21:13:50.646Z,51.83
2023-04-29T21:16:19.716Z,51.85
2023-04-29T21:18:48.545Z,51.79
2023-04-29T21:21:16.916Z,51.51
2023-04-29T21:23:45.723Z,51.70
2023-04-29T21:26:15.287Z,51.59
2023-04-29T21:28:44.115Z,51.61
2023-04-29T21:31:16.411Z,51.60
2023-04-29T21:33:45.522Z,51.54
2023-04-29T21:36:14.126Z,51.74
2023-04-29T21:38:46.094Z,51.46
2023-04-29T21:41:27.611Z,51.52
2023-04-29T21:43:58.708Z,51.68
2023-04-29T21:46:29.989Z,51.94
2023-04-29T21:48:58.702Z,52.17
2023-04-29T21:51:27.237Z,52.27
2023-04-29T21:53:56.052Z,52.26
2023-04-29T21:56:24.769Z,52.42
2023-04-29T21:58:53.842Z,52.56
2023-04-29T22:01:40.679Z,52.36
2023-04-29T22:04:09.424Z,53.21
2023-04-29T22:06:37.857Z,52.98
2023-04-29T22:09:09.445Z,52.70
2023-04-29T22:11:37.837Z,53.24
2023-04-29T22:14:06.815Z,53.19
2023-04-29T22:16:36.155Z,52.68
2023-04-29T22:19:05.075Z,53.39
2023-04-29T22:21:33.913Z,53.25
2023-04-29T22:24:02.881Z,53.25
2023-04-29T22:26:31.324Z,53.40
2023-04-29T22:28:59.978Z,52.94
2023-04-29T22:31:28.407Z,52.99
2023-04-29T22:33:57.181Z,53.17
2023-04-29T22:36:25.532Z,52.89
2023-04-29T22:38:54.177Z,52.96
2023-04-29T22:41:22.528Z,53.01
2023-04-29T22:43:57.695Z,53.02
2023-04-29T22:46:26.394Z,52.77
2023-04-29T22:48:55.247Z,52.56
2023-04-29T22:51:23.607Z,52.89
2023-04-29T22:53:52.520Z,53.22
2023-04-29T22:56:21.119Z,53.13
2023-04-29T22:58:50.252Z,53.02
2023-04-29T23:01:18.558Z,53.08
2023-04-29T23:03:47.318Z,53.18
2023-04-29T23:06:15.653Z,53.32
2023-04-29T23:08:44.815Z,53.15
2023-04-29T23:11:13.462Z,53.04
2023-04-29T23:13:42.133Z,53.43
2023-04-29T23:16:11.124Z,53.16
2023-04-29T23:18:39.945Z,53.09
2023-04-29T23:21:08.302Z,53.47
2023-04-29T23:23:36.928Z,53.30
2023-04-29T23:26:05.505Z,52.78
2023-04-29T23:28:34.389Z,52.80
2023-04-29T23:31:02.805Z,52.83
2023-04-29T23:33:31.789Z,53.17
2023-04-29T23:36:00.138Z,52.90
2023-04-29T23:38:29.061Z,52.92
2023-04-29T23:40:57.471Z,52.69
2023-04-29T23:43:26.192Z,52.79
2023-04-29T23:45:54.500Z,52.82
2023-04-29T23:48:23.086Z,52.85
2023-04-29T23:50:51.377Z,52.73
2023-04-29T23:53:19.976Z,53.10
2023-04-29T23:55:49.848Z,52.75
2023-04-29T23:58:18.431Z,52.55
